sensor_id;sensor_type;location;lat;lon;timestamp;pressure;altitude;pressure_sealevel;temperature;humidity
39267;BME280;24967;51.154;13.812;2023-11-19T11:19:16;98660.84;;;10.76;100.00
39267;BME280;24967;51.154;13.812;2023-11-19T11:21:46;98670.38;;;11.02;100.00
39267;BME280;24967;51.154;13.812;2023-11-19T11:24:36;98665.44;;;11.44;100.00
39267;BME280;24967;51.154;13.812;2023-11-19T11:27:22;98658.75;;;11.49;97.56
39267;BME280;24967;51.154;13.812;2023-11-19T11:30:01;98665.25;;;11.46;98.00
39267;BME280;24967;51.154;13.812;2023-11-19T11:32:35;98668.03;;;11.53;96.88
39267;BME280;24967;51.154;13.812;2023-11-19T11:35:19;98670.06;;;11.51;96.47
39267;BME280;24967;51.154;13.812;2023-11-19T11:37:56;98676.44;;;11.41;97.33
39267;BME280;24967;51.154;13.812;2023-11-19T11:40:25;98674.25;;;11.45;96.93
39267;BME280;24967;51.154;13.812;2023-11-19T11:42:52;98661.53;;;11.32;97.11
39267;BME280;24967;51.154;13.812;2023-11-19T11:45:19;98664.53;;;11.52;97.44
39267;BME280;24967;51.154;13.812;2023-11-19T11:48:09;98655.97;;;11.65;97.12
39267;BME280;24967;51.154;13.812;2023-11-19T11:50:49;98661.66;;;11.85;97.61
39267;BME280;24967;51.154;13.812;2023-11-19T11:53:20;98671.16;;;12.02;94.82
39267;BME280;24967;51.154;13.812;2023-11-19T11:56:00;98672.56;;;12.28;90.75
39267;BME280;24967;51.154;13.812;2023-11-19T11:58:32;98680.38;;;12.29;89.08
39267;BME280;24967;51.154;13.812;2023-11-19T12:01:01;98671.91;;;12.11;87.66
39267;BME280;24967;51.154;13.812;2023-11-19T12:03:29;98676.31;;;12.19;86.33
39267;BME280;24967;51.154;13.812;2023-11-19T12:05:57;98673.75;;;12.10;86.46
39267;BME280;24967;51.154;13.812;2023-11-19T12:08:26;98674.94;;;12.08;86.23
39267;BME280;24967;51.154;13.812;2023-11-19T12:10:54;98668.06;;;12.13;84.52
39267;BME280;24967;51.154;13.812;2023-11-19T12:13:23;98665.06;;;11.94;85.95
39267;BME280;24967;51.154;13.812;2023-11-19T12:16:08;98658.94;;;12.08;86.18
39267;BME280;24967;51.154;13.812;2023-11-19T12:18:36;98660.44;;;12.10;84.55
39267;BME280;24967;51.154;13.812;2023-11-19T12:21:06;98659.66;;;11.87;86.72
39267;BME280;24967;51.154;13.812;2023-11-19T12:23:34;98644.88;;;11.99;87.16
39267;BME280;24967;51.154;13.812;2023-11-19T12:26:01;98635.94;;;11.92;86.56
39267;BME280;24967;51.154;13.812;2023-11-19T12:28:29;98640.56;;;11.98;87.49
39267;BME280;24967;51.154;13.812;2023-11-19T12:31:07;98647.16;;;11.87;88.31
39267;BME280;24967;51.154;13.812;2023-11-19T12:33:35;98649.38;;;11.99;90.75
39267;BME280;24967;51.154;13.812;2023-11-19T12:36:04;98648.66;;;12.05;91.44
39267;BME280;24967;51.154;13.812;2023-11-19T12:38:33;98654.13;;;11.88;92.43
39267;BME280;24967;51.154;13.812;2023-11-19T12:41:03;98643.91;;;11.31;98.17
39267;BME280;24967;51.154;13.812;2023-11-19T12:43:29;98641.72;;;10.81;97.66
39267;BME280;24967;51.154;13.812;2023-11-19T12:45:56;98656.59;;;10.59;97.11
39267;BME280;24967;51.154;13.812;2023-11-19T12:48:23;98648.97;;;10.55;98.57
39267;BME280;24967;51.154;13.812;2023-11-19T12:50:53;98645.44;;;10.63;96.92
39267;BME280;24967;51.154;13.812;2023-11-19T12:53:19;98648.66;;;10.50;97.98
39267;BME280;24967;51.154;13.812;2023-11-19T12:55:47;98652.84;;;10.84;96.55
39267;BME280;24967;51.154;13.812;2023-11-19T12:58:30;98629.28;;;10.25;99.21
39267;BME280;24967;51.154;13.812;2023-11-19T13:01:00;98626.81;;;10.07;100.00
39267;BME280;24967;51.154;13.812;2023-11-19T13:03:30;98617.09;;;9.67;100.00
39267;BME280;24967;51.154;13.812;2023-11-19T13:06:05;98598.88;;;9.39;100.00
39267;BME280;24967;51.154;13.812;2023-11-19T13:08:37;98592.91;;;9.46;100.00
39267;BME280;24967;51.154;13.812;2023-11-19T13:11:06;98589.59;;;9.60;100.00
39267;BME280;24967;51.154;13.812;2023-11-19T13:13:55;98585.59;;;9.72;98.32
39267;BME280;24967;51.154;13.812;2023-11-19T13:16:21;98583.91;;;9.88;99.63
39267;BME280;24967;51.154;13.812;2023-11-19T13:18:48;98594.47;;;10.04;99.42
39267;BME280;24967;51.154;13.812;2023-11-19T13:21:15;98590.44;;;10.32;100.00
39267;BME280;24967;51.154;13.812;2023-11-19T13:23:41;98598.66;;;10.54;100.00
39267;BME280;24967;51.154;13.812;2023-11-19T13:26:09;98597.00;;;10.53;100.00
39267;BME280;24967;51.154;13.812;2023-11-19T13:28:36;98596.13;;;10.61;100.00
39267;BME280;24967;51.154;13.812;2023-11-19T13:31:03;98598.25;;;10.96;98.78
39267;BME280;24967;51.154;13.812;2023-11-19T13:33:30;98591.41;;;11.02;98.26
39267;BME280;24967;51.154;13.812;2023-11-19T13:35:56;98593.84;;;11.12;98.00
39267;BME280;24967;51.154;13.812;2023-11-19T13:38:23;98590.97;;;11.13;98.21
39267;BME280;24967;51.154;13.812;2023-11-19T13:40:50;98588.09;;;11.00;98.82
39267;BME280;24967;51.154;13.812;2023-11-19T13:43:19;98592.91;;;11.05;99.35
39267;BME280;24967;51.154;13.812;2023-11-19T13:45:45;98589.09;;;10.99;100.00
39267;BME280;24967;51.154;13.812;2023-11-19T13:48:11;98585.56;;;11.30;99.50
39267;BME280;24967;51.154;13.812;2023-11-19T13:50:38;98583.25;;;11.27;97.43
39267;BME280;24967;51.154;13.812;2023-11-19T13:53:05;98596.78;;;11.40;93.97
39267;BME280;24967;51.154;13.812;2023-11-19T13:55:31;98594.00;;;11.56;92.81
39267;BME280;24967;51.154;13.812;2023-11-19T13:57:58;98597.50;;;11.72;88.31
39267;BME280;24967;51.154;13.812;2023-11-19T14:00:26;98600.63;;;11.75;90.36
39267;BME280;24967;51.154;13.812;2023-11-19T14:02:53;98603.31;;;11.75;87.08
39267;BME280;24967;51.154;13.812;2023-11-19T14:05:20;98611.72;;;11.87;86.48
39267;BME280;24967;51.154;13.812;2023-11-19T14:07:48;98602.03;;;11.71;87.14
39267;BME280;24967;51.154;13.812;2023-11-19T14:10:16;98606.84;;;11.67;84.36
39267;BME280;24967;51.154;13.812;2023-11-19T14:12:43;98606.69;;;11.69;83.63
39267;BME280;24967;51.154;13.812;2023-11-19T14:15:10;98605.50;;;11.72;81.94
39267;BME280;24967;51.154;13.812;2023-11-19T14:17:39;98617.44;;;11.76;82.03
39267;BME280;24967;51.154;13.812;2023-11-19T14:20:07;98614.03;;;11.82;81.92
39267;BME280;24967;51.154;13.812;2023-11-19T14:22:38;98622.53;;;11.85;79.43
39267;BME280;24967;51.154;13.812;2023-11-19T14:25:05;98623.00;;;11.89;79.54
39267;BME280;24967;51.154;13.812;2023-11-19T14:27:35;98621.56;;;11.78;77.53
39267;BME280;24967;51.154;13.812;2023-11-19T14:30:01;98622.22;;;11.80;78.55
39267;BME280;24967;51.154;13.812;2023-11-19T14:32:28;98625.88;;;11.79;76.09
39267;BME280;24967;51.154;13.812;2023-11-19T14:34:55;98625.31;;;11.69;75.42
39267;BME280;24967;51.154;13.812;2023-11-19T14:37:22;98622.97;;;11.74;75.49
39267;BME280;24967;51.154;13.812;2023-11-19T14:39:48;98618.34;;;11.68;75.57
39267;BME280;24967;51.154;13.812;2023-11-19T14:42:16;98624.91;;;11.57;74.48
39267;BME280;24967;51.154;13.812;2023-11-19T14:44:42;98623.03;;;11.66;74.83
39267;BME280;24967;51.154;13.812;2023-11-19T14:47:09;98623.50;;;11.46;75.26
39267;BME280;24967;51.154;13.812;2023-11-19T14:49:36;98619.44;;;11.36;75.16
39267;BME280;24967;51.154;13.812;2023-11-19T14:52:04;98621.63;;;11.32;74.84
39267;BME280;24967;51.154;13.812;2023-11-19T14:54:31;98624.41;;;11.62;74.92
39267;BME280;24967;51.154;13.812;2023-11-19T14:56:57;98618.13;;;11.55;74.25
39267;BME280;24967;51.154;13.812;2023-11-19T14:59:25;98614.56;;;11.62;74.34
39267;BME280;24967;51.154;13.812;2023-11-19T15:01:52;98616.78;;;11.74;74.40
39267;BME280;24967;51.154;13.812;2023-11-19T15:04:18;98609.81;;;11.73;73.96
39267;BME280;24967;51.154;13.812;2023-11-19T15:06:45;98616.38;;;11.47;74.85
39267;BME280;24967;51.154;13.812;2023-11-19T15:09:12;98617.09;;;11.56;75.14
39267;BME280;24967;51.154;13.812;2023-11-19T15:11:42;98610.69;;;11.50;73.90
39267;BME280;24967;51.154;13.812;2023-11-19T15:14:09;98612.72;;;11.63;73.59
39267;BME280;24967;51.154;13.812;2023-11-19T15:16:35;98614.44;;;11.56;73.63
39267;BME280;24967;51.154;13.812;2023-11-19T15:19:01;98612.97;;;11.53;73.51
39267;BME280;24967;51.154;13.812;2023-11-19T15:21:29;98622.09;;;11.36;74.16
39267;BME280;24967;51.154;13.812;2023-11-19T15:23:55;98630.06;;;11.36;74.56
39267;BME280;24967;51.154;13.812;2023-11-19T15:26:23;98622.97;;;11.28;74.59
39267;BME280;24967;51.154;13.812;2023-11-19T15:28:50;98629.84;;;11.22;75.04
39267;BME280;24967;51.154;13.812;2023-11-19T15:31:21;98621.59;;;11.09;74.75
39267;BME280;24967;51.154;13.812;2023-11-19T15:33:48;98625.09;;;11.10;75.34
39267;BME280;24967;51.154;13.812;2023-11-19T15:36:16;98624.94;;;11.11;75.97
39267;BME280;24967;51.154;13.812;2023-11-19T15:38:43;98620.47;;;11.04;75.47
39267;BME280;24967;51.154;13.812;2023-11-19T15:41:10;98623.56;;;10.92;75.55
39267;BME280;24967;51.154;13.812;2023-11-19T15:43:39;98620.81;;;11.00;75.81
39267;BME280;24967;51.154;13.812;2023-11-19T15:46:06;98622.34;;;10.95;76.21
39267;BME280;24967;51.154;13.812;2023-11-19T15:48:32;98627.94;;;10.77;76.66
39267;BME280;24967;51.154;13.812;2023-11-19T15:50:59;98626.22;;;10.92;76.69
39267;BME280;24967;51.154;13.812;2023-11-19T15:53:26;98624.16;;;10.71;77.81
39267;BME280;24967;51.154;13.812;2023-11-19T15:55:52;98631.47;;;10.69;77.85
39267;BME280;24967;51.154;13.812;2023-11-19T15:58:19;98640.28;;;10.62;78.32
39267;BME280;24967;51.154;13.812;2023-11-19T16:00:47;98634.13;;;10.69;78.19
39267;BME280;24967;51.154;13.812;2023-11-19T16:03:13;98637.81;;;10.60;79.56
39267;BME280;24967;51.154;13.812;2023-11-19T16:05:41;98637.22;;;10.81;78.43
39267;BME280;24967;51.154;13.812;2023-11-19T16:08:07;98633.13;;;10.70;78.44
39267;BME280;24967;51.154;13.812;2023-11-19T16:10:36;98637.34;;;10.57;79.77
39267;BME280;24967;51.154;13.812;2023-11-19T16:13:05;98640.53;;;10.44;80.35
39267;BME280;24967;51.154;13.812;2023-11-19T16:15:32;98645.03;;;10.43;80.50
39267;BME280;24967;51.154;13.812;2023-11-19T16:18:00;98643.41;;;10.26;81.45
39267;BME280;24967;51.154;13.812;2023-11-19T16:20:27;98638.75;;;10.28;81.51
39267;BME280;24967;51.154;13.812;2023-11-19T16:22:53;98643.22;;;10.19;81.61
39267;BME280;24967;51.154;13.812;2023-11-19T16:25:20;98637.59;;;10.30;81.77
39267;BME280;24967;51.154;13.812;2023-11-19T16:27:46;98645.88;;;10.19;82.09
39267;BME280;24967;51.154;13.812;2023-11-19T16:30:13;98639.22;;;10.40;81.78
39267;BME280;24967;51.154;13.812;2023-11-19T16:32:48;98645.53;;;10.22;81.97
39267;BME280;24967;51.154;13.812;2023-11-19T16:35:16;98648.88;;;10.32;81.82
39267;BME280;24967;51.154;13.812;2023-11-19T16:37:43;98638.25;;;10.24;81.92
39267;BME280;24967;51.154;13.812;2023-11-19T16:40:11;98643.88;;;10.38;81.26
39267;BME280;24967;51.154;13.812;2023-11-19T16:42:38;98643.75;;;10.23;81.74
39267;BME280;24967;51.154;13.812;2023-11-19T16:45:06;98640.75;;;10.26;81.87
39267;BME280;24967;51.154;13.812;2023-11-19T16:47:34;98646.03;;;10.42;80.50
39267;BME280;24967;51.154;13.812;2023-11-19T16:50:01;98648.19;;;10.47;80.16
39267;BME280;24967;51.154;13.812;2023-11-19T16:52:30;98642.94;;;10.70;79.34
39267;BME280;24967;51.154;13.812;2023-11-19T16:54:57;98654.13;;;10.57;79.73
39267;BME280;24967;51.154;13.812;2023-11-19T16:57:24;98649.28;;;10.61;79.25
39267;BME280;24967;51.154;13.812;2023-11-19T16:59:52;98655.97;;;10.48;79.67
39267;BME280;24967;51.154;13.812;2023-11-19T17:02:21;98657.13;;;10.54;80.03
39267;BME280;24967;51.154;13.812;2023-11-19T17:04:48;98652.50;;;10.48;79.64
39267;BME280;24967;51.154;13.812;2023-11-19T17:07:15;98659.47;;;10.41;80.34
39267;BME280;24967;51.154;13.812;2023-11-19T17:09:42;98660.81;;;10.45;79.85
39267;BME280;24967;51.154;13.812;2023-11-19T17:12:09;98648.81;;;10.57;79.28
39267;BME280;24967;51.154;13.812;2023-11-19T17:14:35;98643.66;;;10.55;79.27
39267;BME280;24967;51.154;13.812;2023-11-19T17:17:02;98640.03;;;10.40;79.25
39267;BME280;24967;51.154;13.812;2023-11-19T17:19:29;98647.53;;;10.37;79.64
39267;BME280;24967;51.154;13.812;2023-11-19T17:21:55;98654.69;;;10.36;79.64
39267;BME280;24967;51.154;13.812;2023-11-19T17:24:22;98650.53;;;10.42;79.38
39267;BME280;24967;51.154;13.812;2023-11-19T17:26:49;98654.50;;;10.38;78.58
39267;BME280;24967;51.154;13.812;2023-11-19T17:29:16;98648.84;;;10.41;79.20
39267;BME280;24967;51.154;13.812;2023-11-19T17:31:43;98647.19;;;10.48;78.65
39267;BME280;24967;51.154;13.812;2023-11-19T17:34:10;98643.84;;;10.46;78.74
39267;BME280;24967;51.154;13.812;2023-11-19T17:36:36;98658.47;;;10.50;78.48
39267;BME280;24967;51.154;13.812;2023-11-19T17:39:03;98646.50;;;10.54;77.91
39267;BME280;24967;51.154;13.812;2023-11-19T17:41:30;98652.00;;;10.44;77.48
39267;BME280;24967;51.154;13.812;2023-11-19T17:43:58;98646.19;;;10.41;77.08
39267;BME280;24967;51.154;13.812;2023-11-19T17:46:25;98650.66;;;10.48;77.76
39267;BME280;24967;51.154;13.812;2023-11-19T17:48:51;98654.94;;;10.58;76.75
39267;BME280;24967;51.154;13.812;2023-11-19T17:51:18;98649.47;;;10.59;75.81
39267;BME280;24967;51.154;13.812;2023-11-19T17:53:45;98651.94;;;10.61;76.00
39267;BME280;24967;51.154;13.812;2023-11-19T17:56:11;98647.63;;;10.60;75.48
39267;BME280;24967;51.154;13.812;2023-11-19T17:58:39;98643.47;;;10.65;75.49
39267;BME280;24967;51.154;13.812;2023-11-19T18:01:07;98650.06;;;10.69;75.17
39267;BME280;24967;51.154;13.812;2023-11-19T18:03:33;98648.50;;;10.83;74.79
39267;BME280;24967;51.154;13.812;2023-11-19T18:06:00;98646.97;;;10.89;75.08
39267;BME280;24967;51.154;13.812;2023-11-19T18:08:27;98655.41;;;10.69;74.34
39267;BME280;24967;51.154;13.812;2023-11-19T18:10:53;98656.34;;;10.76;73.81
39267;BME280;24967;51.154;13.812;2023-11-19T18:13:20;98655.41;;;10.69;74.06
39267;BME280;24967;51.154;13.812;2023-11-19T18:15:46;98656.69;;;10.73;74.15
39267;BME280;24967;51.154;13.812;2023-11-19T18:18:14;98649.81;;;10.56;73.35
39267;BME280;24967;51.154;13.812;2023-11-19T18:20:41;98651.00;;;10.45;73.51
39267;BME280;24967;51.154;13.812;2023-11-19T18:23:07;98660.78;;;10.53;73.47
39267;BME280;24967;51.154;13.812;2023-11-19T18:25:33;98657.38;;;10.67;73.16
39267;BME280;24967;51.154;13.812;2023-11-19T18:28:00;98662.09;;;10.57;72.69
39267;BME280;24967;51.154;13.812;2023-11-19T18:30:27;98657.38;;;10.67;72.15
39267;BME280;24967;51.154;13.812;2023-11-19T18:32:54;98656.47;;;10.83;72.33
39267;BME280;24967;51.154;13.812;2023-11-19T18:35:22;98655.47;;;10.92;71.50
39267;BME280;24967;51.154;13.812;2023-11-19T18:37:49;98655.38;;;10.77;72.26
39267;BME280;24967;51.154;13.812;2023-11-19T18:40:18;98649.53;;;10.74;72.30
39267;BME280;24967;51.154;13.812;2023-11-19T18:42:46;98659.53;;;10.72;71.89
39267;BME280;24967;51.154;13.812;2023-11-19T18:45:13;98660.56;;;10.63;72.73
39267;BME280;24967;51.154;13.812;2023-11-19T18:47:41;98665.25;;;10.52;72.87
39267;BME280;24967;51.154;13.812;2023-11-19T18:50:08;98668.09;;;10.51;72.67
39267;BME280;24967;51.154;13.812;2023-11-19T18:52:36;98671.91;;;10.57;72.81
39267;BME280;24967;51.154;13.812;2023-11-19T18:55:04;98669.72;;;10.60;72.63
39267;BME280;24967;51.154;13.812;2023-11-19T18:57:31;98671.78;;;10.34;73.43
39267;BME280;24967;51.154;13.812;2023-11-19T18:59:57;98657.00;;;10.31;73.42
39267;BME280;24967;51.154;13.812;2023-11-19T19:02:24;98668.31;;;10.33;73.81
39267;BME280;24967;51.154;13.812;2023-11-19T19:04:51;98667.66;;;10.23;73.87
39267;BME280;24967;51.154;13.812;2023-11-19T19:07:17;98667.97;;;10.28;74.10
39267;BME280;24967;51.154;13.812;2023-11-19T19:09:45;98671.94;;;10.24;74.56
39267;BME280;24967;51.154;13.812;2023-11-19T19:12:17;98673.16;;;10.05;74.94
39267;BME280;24967;51.154;13.812;2023-11-19T19:14:43;98666.66;;;10.07;75.41
39267;BME280;24967;51.154;13.812;2023-11-19T19:17:10;98673.13;;;10.13;75.22
39267;BME280;24967;51.154;13.812;2023-11-19T19:19:37;98668.81;;;10.20;75.06
39267;BME280;24967;51.154;13.812;2023-11-19T19:22:03;98667.63;;;10.31;75.13
39267;BME280;24967;51.154;13.812;2023-11-19T19:24:30;98670.75;;;10.43;74.09
39267;BME280;24967;51.154;13.812;2023-11-19T19:26:58;98666.47;;;10.25;73.99
39267;BME280;24967;51.154;13.812;2023-11-19T19:29:24;98665.13;;;10.38;74.11
39267;BME280;24967;51.154;13.812;2023-11-19T19:31:51;98670.22;;;10.55;73.67
39267;BME280;24967;51.154;13.812;2023-11-19T19:34:17;98667.47;;;10.24;74.03
39267;BME280;24967;51.154;13.812;2023-11-19T19:36:44;98671.44;;;10.45;73.81
39267;BME280;24967;51.154;13.812;2023-11-19T19:39:10;98661.91;;;10.59;73.54
39267;BME280;24967;51.154;13.812;2023-11-19T19:41:40;98663.38;;;10.69;72.77
39267;BME280;24967;51.154;13.812;2023-11-19T19:44:08;98670.53;;;10.61;73.03
39267;BME280;24967;51.154;13.812;2023-11-19T19:46:35;98674.69;;;10.63;73.27
39267;BME280;24967;51.154;13.812;2023-11-19T19:49:01;98669.72;;;10.60;72.65
39267;BME280;24967;51.154;13.812;2023-11-19T19:51:28;98675.97;;;10.75;73.19
39267;BME280;24967;51.154;13.812;2023-11-19T19:53:54;98676.78;;;10.76;72.79
39267;BME280;24967;51.154;13.812;2023-11-19T19:56:22;98670.00;;;10.73;72.41
39267;BME280;24967;51.154;13.812;2023-11-19T19:58:48;98677.97;;;10.73;73.02
39267;BME280;24967;51.154;13.812;2023-11-19T20:01:16;98670.47;;;10.77;73.21
39267;BME280;24967;51.154;13.812;2023-11-19T20:03:42;98674.97;;;10.76;72.92
39267;BME280;24967;51.154;13.812;2023-11-19T20:06:09;98681.63;;;10.72;72.96
39267;BME280;24967;51.154;13.812;2023-11-19T20:08:36;98677.47;;;10.78;73.58
39267;BME280;24967;51.154;13.812;2023-11-19T20:11:03;98683.13;;;10.75;73.07
39267;BME280;24967;51.154;13.812;2023-11-19T20:13:30;98676.31;;;10.72;73.67
